Time;durP1;ratioP1;P1;durP2;ratioP2;P2;SDS_P1;SDS_P2;PMS_P1;PMS_P2;Temp;Humidity;BMP_temperature;BMP_pressure;BME280_temperature;BME280_humidity;BME280_pressure;Samples;Min_cycle;Max_cycle;Signal;HPM_P1;HPM_P2
2023/09/03 00:01:33;;;;;;;50.72;47.30;;;13.00;99.90;;;;;;6214721;23;20010;-81
2023/09/03 00:03:59;;;;;;;47.33;43.90;;;12.70;99.90;;;;;;6214901;23;20008;-80
2023/09/03 00:06:24;;;;;;;40.75;38.03;;;12.90;99.90;;;;;;6240163;23;20012;-81
2023/09/03 00:08:50;;;;;;;49.97;46.15;;;12.70;99.90;;;;;;6214075;23;20031;-81
2023/09/03 00:11:16;;;;;;;46.45;43.00;;;12.70;99.90;;;;;;6214578;23;20474;-81
2023/09/03 00:13:43;;;;;;;50.08;46.65;;;13.20;99.90;;;;;;6241446;22;20095;-80
2023/09/03 00:16:09;;;;;;;47.38;43.90;;;12.70;99.90;;;;;;6214566;23;20012;-81
2023/09/03 00:18:36;;;;;;;46.78;43.78;;;12.60;99.90;;;;;;6214746;23;20016;-81
2023/09/03 00:21:04;;;;;;;49.05;45.35;;;12.60;99.90;;;;;;6214531;23;20012;-81
2023/09/03 00:23:31;;;;;;;48.22;44.88;;;13.00;99.90;;;;;;6214083;23;20019;-81
2023/09/03 00:25:58;;;;;;;53.55;49.63;;;12.70;99.90;;;;;;6240210;23;20011;-81
2023/09/03 00:28:24;;;;;;;49.10;45.50;;;12.40;99.90;;;;;;6214608;23;20040;-81
2023/09/03 00:31:23;;;;;;;44.70;41.45;;;12.40;99.90;;;;;;6239905;23;20023;-81
2023/09/03 00:33:49;;;;;;;56.45;52.40;;;12.70;99.90;;;;;;6211497;23;20016;-81
2023/09/03 00:36:14;;;;;;;51.90;48.28;;;12.30;99.90;;;;;;6241685;23;20046;-81
2023/09/03 00:38:40;;;;;;;47.63;44.05;;;12.30;99.90;;;;;;6239198;23;20347;-80
2023/09/03 00:41:05;;;;;;;59.00;54.65;;;12.30;99.90;;;;;;6214365;23;20035;-81
2023/09/03 00:43:32;;;;;;;58.33;53.83;;;12.20;99.90;;;;;;6213266;23;20636;-81
2023/09/03 00:46:04;;;;;;;64.50;59.85;;;12.20;99.90;;;;;;6238290;23;20048;-81
2023/09/03 00:48:30;;;;;;;55.08;50.90;;;12.20;99.90;;;;;;6240715;22;20004;-81
2023/09/03 00:51:01;;;;;;;54.40;50.47;;;12.20;99.90;;;;;;6238743;23;20044;-81
2023/09/03 00:53:29;;;;;;;56.22;52.05;;;12.20;99.90;;;;;;6238196;23;20051;-81
2023/09/03 00:55:55;;;;;;;58.50;54.47;;;12.20;99.90;;;;;;6237897;23;20012;-81
2023/09/03 00:58:21;;;;;;;55.55;51.58;;;12.20;99.90;;;;;;6212881;23;20022;-81
2023/09/03 01:00:47;;;;;;;60.17;55.50;;;12.20;99.90;;;;;;6238225;23;20069;-80
2023/09/03 01:03:13;;;;;;;58.38;54.17;;;12.40;99.90;;;;;;6212912;23;20016;-81
2023/09/03 01:05:39;;;;;;;49.45;45.60;;;12.20;99.90;;;;;;6212809;23;20516;-81
2023/09/03 01:08:05;;;;;;;65.40;60.58;;;12.80;99.90;;;;;;6212422;23;20016;-81
2023/09/03 01:10:45;;;;;;;51.95;48.20;;;12.10;99.90;;;;;;6212938;23;20020;-81
2023/09/03 01:13:39;;;;;;;61.92;56.85;;;12.10;99.90;;;;;;6212977;23;20012;-81
2023/09/03 01:16:16;;;;;;;56.35;52.13;;;12.10;99.90;;;;;;6159410;23;20023;-81
2023/09/03 01:18:43;;;;;;;52.28;48.55;;;12.10;99.90;;;;;;6212829;23;20362;-81
2023/09/03 01:21:25;;;;;;;59.10;54.65;;;12.10;99.90;;;;;;6239445;22;20014;-81
2023/09/03 01:24:18;;;;;;;49.67;46.00;;;12.10;99.90;;;;;;6238121;23;20254;-81
2023/09/03 01:26:55;;;;;;;45.40;41.80;;;12.10;99.90;;;;;;6238583;23;20023;-80
2023/09/03 01:29:22;;;;;;;61.47;57.25;;;12.10;99.90;;;;;;6239830;22;20031;-81
2023/09/03 01:31:48;;;;;;;51.83;48.00;;;11.60;99.90;;;;;;6238240;23;20044;-81
2023/09/03 01:34:15;;;;;;;65.38;60.63;;;12.10;99.90;;;;;;6238275;23;20069;-81
2023/09/03 01:36:42;;;;;;;54.60;50.35;;;12.10;99.90;;;;;;6212198;23;20234;-80
2023/09/03 01:39:08;;;;;;;58.60;54.20;;;12.10;99.90;;;;;;6238113;23;20035;-81
2023/09/03 01:41:35;;;;;;;52.47;48.33;;;12.10;99.90;;;;;;6212929;23;20012;-81
2023/09/03 06:03:38;;;;;;;24.88;22.85;;;13.00;99.90;;;;;;6289296;22;1248203;-82
2023/09/03 06:06:09;;;;;;;25.50;23.25;;;13.00;99.90;;;;;;6269921;22;20027;-83
2023/09/03 06:08:36;;;;;;;30.92;28.52;;;13.30;99.90;;;;;;6269514;22;20019;-83
2023/09/03 06:11:02;;;;;;;32.90;30.30;;;13.60;99.90;;;;;;6243467;22;20012;-83
2023/09/03 06:13:29;;;;;;;31.70;29.33;;;13.70;99.90;;;;;;6269632;22;20106;-83
2023/09/03 06:15:55;;;;;;;33.08;30.42;;;14.00;99.90;;;;;;6244420;22;20016;-83
2023/09/03 06:18:22;;;;;;;27.63;25.52;;;14.30;99.90;;;;;;6269865;22;20012;-83
2023/09/03 06:20:48;;;;;;;23.83;21.92;;;14.80;99.90;;;;;;6269899;22;20057;-83
2023/09/03 06:23:17;;;;;;;22.40;20.52;;;15.30;99.90;;;;;;6243695;22;20015;-82
2023/09/03 06:25:43;;;;;;;21.50;19.70;;;15.70;99.90;;;;;;6268965;22;20030;-82
2023/09/03 06:28:09;;;;;;;21.67;19.88;;;15.90;99.90;;;;;;6269412;22;20008;-82
2023/09/03 06:30:36;;;;;;;21.75;19.50;;;16.20;99.90;;;;;;6244840;22;20403;-83
2023/09/03 06:33:01;;;;;;;24.35;22.25;;;16.40;99.90;;;;;;6245854;22;20058;-84
2023/09/03 06:35:27;;;;;;;20.45;18.90;;;16.90;99.90;;;;;;6245327;22;20313;-83
2023/09/03 06:37:55;;;;;;;21.02;19.27;;;17.20;99.90;;;;;;6271222;22;20016;-84
2023/09/03 06:40:22;;;;;;;20.17;18.48;;;17.40;99.90;;;;;;6244355;22;20015;-85
2023/09/03 06:42:47;;;;;;;19.50;18.00;;;17.40;99.90;;;;;;6270965;22;20063;-84
2023/09/03 06:45:13;;;;;;;20.50;18.95;;;17.30;99.90;;;;;;6245713;22;20093;-84
2023/09/03 06:47:39;;;;;;;18.35;17.02;;;17.20;99.90;;;;;;6270994;22;20008;-84
2023/09/03 06:50:06;;;;;;;19.42;18.02;;;17.10;99.90;;;;;;6271364;22;20061;-84
2023/09/03 06:52:33;;;;;;;21.08;19.48;;;17.00;99.90;;;;;;6245292;22;20011;-84
2023/09/03 06:54:58;;;;;;;22.40;20.80;;;16.60;99.90;;;;;;6244962;22;20012;-83
2023/09/03 06:57:24;;;;;;;21.30;19.75;;;16.80;99.90;;;;;;6245462;22;20511;-84
2023/09/03 06:59:50;;;;;;;21.60;20.00;;;16.80;99.90;;;;;;6270636;22;20015;-83
2023/09/03 07:02:16;;;;;;;21.08;19.58;;;16.60;99.90;;;;;;6245236;22;20346;-83
2023/09/03 07:04:41;;;;;;;20.65;18.95;;;16.80;99.90;;;;;;6245226;22;20447;-84
2023/09/03 07:07:08;;;;;;;20.50;19.02;;;16.80;99.90;;;;;;6271069;22;20196;-84
2023/09/03 07:09:34;;;;;;;22.08;20.58;;;16.80;99.90;;;;;;6244838;22;20020;-84
2023/09/03 07:12:00;;;;;;;19.33;17.92;;;16.90;99.90;;;;;;6271168;22;20008;-84
2023/09/03 07:14:26;;;;;;;22.65;20.10;;;16.90;99.90;;;;;;6271037;22;20481;-84
2023/09/03 07:16:52;;;;;;;20.00;18.35;;;17.00;99.90;;;;;;6271074;22;20016;-84
2023/09/03 07:19:18;;;;;;;20.65;19.05;;;17.00;99.90;;;;;;6245136;22;20018;-84
2023/09/03 07:21:44;;;;;;;21.52;19.80;;;17.00;99.90;;;;;;6270711;22;20012;-84
2023/09/03 07:24:11;;;;;;;20.52;18.92;;;17.20;99.90;;;;;;6244621;22;20034;-83
2023/09/03 07:26:36;;;;;;;20.38;18.98;;;17.20;99.90;;;;;;6270707;22;20021;-83
2023/09/03 07:29:02;;;;;;;20.17;18.65;;;17.30;99.90;;;;;;6270798;22;20086;-84
2023/09/03 07:31:28;;;;;;;22.45;20.55;;;17.40;99.90;;;;;;6270860;22;20015;-84
2023/09/03 07:33:53;;;;;;;20.45;18.67;;;17.60;99.90;;;;;;6245189;22;20012;-84
2023/09/03 07:36:19;;;;;;;20.73;19.10;;;17.70;99.90;;;;;;6245406;22;20053;-84
2023/09/03 07:38:45;;;;;;;20.33;18.98;;;17.80;99.90;;;;;;6269990;22;20016;-84
2023/09/03 07:41:10;;;;;;;20.20;18.73;;;18.00;99.90;;;;;;6271024;22;20574;-84
2023/09/03 07:43:36;;;;;;;19.60;18.10;;;18.10;99.90;;;;;;6245170;22;20548;-84
2023/09/03 07:46:02;;;;;;;19.27;18.00;;;18.20;99.90;;;;;;6270768;22;20012;-84
2023/09/03 07:48:28;;;;;;;23.70;22.15;;;18.30;99.90;;;;;;6270971;22;20007;-83
2023/09/03 07:50:53;;;;;;;21.50;19.80;;;18.40;99.90;;;;;;6245002;22;20007;-83
2023/09/03 07:53:19;;;;;;;22.02;20.38;;;18.40;99.90;;;;;;6269794;22;20022;-83
2023/09/03 07:55:45;;;;;;;23.83;22.30;;;18.50;99.90;;;;;;6244928;22;20016;-83
2023/09/03 07:58:10;;;;;;;22.17;20.52;;;18.40;99.90;;;;;;6244709;22;20007;-83
2023/09/03 08:00:38;;;;;;;22.13;20.58;;;18.40;99.90;;;;;;6245077;22;20135;-83
2023/09/03 08:03:03;;;;;;;23.92;22.23;;;18.50;99.90;;;;;;6270297;22;20466;-83
2023/09/03 08:05:29;;;;;;;23.92;22.38;;;18.50;99.90;;;;;;6271821;22;20046;-83
2023/09/03 08:07:55;;;;;;;24.00;22.25;;;18.50;99.90;;;;;;6244468;22;20012;-83
2023/09/03 08:10:20;;;;;;;21.52;20.08;;;18.60;99.90;;;;;;6245068;22;20024;-84
2023/09/03 08:12:46;;;;;;;24.92;23.25;;;18.70;99.90;;;;;;6270838;22;20340;-84
2023/09/03 08:15:13;;;;;;;27.98;26.05;;;18.80;99.90;;;;;;6270836;22;20011;-83
2023/09/03 08:17:39;;;;;;;28.70;26.70;;;18.90;99.90;;;;;;6245102;22;20012;-84
2023/09/03 08:20:05;;;;;;;25.48;23.75;;;18.90;99.90;;;;;;6244831;22;20011;-84
2023/09/03 08:22:30;;;;;;;27.83;26.13;;;19.00;99.90;;;;;;6269651;22;20012;-83
2023/09/03 08:24:56;;;;;;;27.20;25.13;;;19.00;99.90;;;;;;6270214;22;20048;-84
2023/09/03 08:27:22;;;;;;;26.23;24.60;;;19.10;99.90;;;;;;6270346;22;20008;-83
2023/09/03 08:29:47;;;;;;;29.23;27.52;;;19.20;99.90;;;;;;6270268;22;20007;-83
2023/09/03 08:32:13;;;;;;;30.38;28.60;;;19.20;99.90;;;;;;6244971;22;20102;-83
2023/09/03 08:34:38;;;;;;;27.90;26.30;;;19.30;99.90;;;;;;6272332;22;20019;-84
2023/09/03 08:37:04;;;;;;;29.80;27.90;;;19.30;99.90;;;;;;6270188;22;20039;-83
2023/09/03 08:39:30;;;;;;;28.92;27.13;;;19.50;99.90;;;;;;6270731;22;20012;-83
2023/09/03 08:41:57;;;;;;;32.72;30.83;;;19.50;99.90;;;;;;6244535;22;20008;-83
2023/09/03 08:44:34;;;;;;;29.05;27.15;;;19.60;99.90;;;;;;6270535;22;20015;-84
2023/09/03 08:47:02;;;;;;;31.80;29.70;;;19.70;99.90;;;;;;6244773;22;20062;-84
2023/09/03 08:49:33;;;;;;;34.85;32.75;;;19.90;99.90;;;;;;6270319;22;20039;-83
2023/09/03 08:51:59;;;;;;;29.10;27.00;;;20.00;99.90;;;;;;6244110;22;20012;-84
2023/09/03 08:54:26;;;;;;;30.73;28.77;;;20.30;99.90;;;;;;6270533;22;20322;-83
2023/09/03 08:56:52;;;;;;;28.10;26.45;;;20.70;99.90;;;;;;6244708;22;20098;-84
2023/09/03 08:59:18;;;;;;;28.98;27.00;;;21.30;99.90;;;;;;6244402;22;20454;-84
2023/09/03 09:01:51;;;;;;;31.95;30.05;;;21.70;99.90;;;;;;6269644;22;20470;-84
2023/09/03 09:04:17;;;;;;;21.30;19.88;;;22.10;99.90;;;;;;6269750;22;20012;-83
2023/09/03 09:06:43;;;;;;;27.67;26.02;;;22.10;99.90;;;;;;6247030;22;20149;-84
2023/09/03 09:09:10;;;;;;;30.33;28.33;;;22.40;99.90;;;;;;6244196;22;20018;-84
2023/09/03 09:11:45;;;;;;;29.50;27.77;;;22.70;99.90;;;;;;6244373;22;20043;-84
2023/09/03 09:14:19;;;;;;;25.63;24.13;;;23.30;99.90;;;;;;6244141;22;20019;-83
2023/09/03 09:16:45;;;;;;;20.92;19.35;;;23.70;99.90;;;;;;6269731;22;20016;-83
2023/09/03 09:19:16;;;;;;;20.75;19.38;;;23.90;99.90;;;;;;6269698;22;20014;-83
2023/09/03 09:21:41;;;;;;;21.15;19.75;;;24.00;99.90;;;;;;6243714;22;20069;-84
2023/09/03 09:24:07;;;;;;;19.98;18.80;;;24.10;99.90;;;;;;6244333;22;20011;-83
2023/09/03 09:26:33;;;;;;;24.58;22.92;;;24.10;99.90;;;;;;6269502;22;20065;-84
2023/09/03 09:29:03;;;;;;;28.08;26.30;;;24.10;99.90;;;;;;6270151;22;20490;-83
2023/09/03 09:31:33;;;;;;;38.05;35.75;;;23.90;99.90;;;;;;6244341;22;20007;-84
2023/09/03 09:34:08;;;;;;;43.80;41.20;;;23.60;99.90;;;;;;6243747;22;20469;-83
2023/09/03 09:36:33;;;;;;;237.00;217.13;;;23.20;99.90;;;;;;6269928;22;20015;-83
2023/09/03 09:39:07;;;;;;;665.22;598.08;;;22.70;99.90;;;;;;6244171;22;20385;-84
2023/09/03 09:41:37;;;;;;;446.15;384.85;;;22.40;99.90;;;;;;6271949;22;20082;-83
2023/09/03 09:44:09;;;;;;;1006.75;701.30;;;22.00;99.90;;;;;;6271304;22;20507;-81
2023/09/03 09:46:34;;;;;;;529.03;369.33;;;21.90;99.90;;;;;;6272561;22;20087;-82
2023/09/03 09:49:02;;;;;;;877.95;528.17;;;21.80;99.90;;;;;;6269692;22;20035;-81
2023/09/03 09:51:29;;;;;;;1163.32;770.63;;;21.60;99.90;;;;;;6244047;22;20018;-81
2023/09/03 09:54:02;;;;;;;1163.30;778.30;;;21.70;99.90;;;;;;6269741;22;20022;-81
2023/09/03 09:56:29;;;;;;;838.88;544.40;;;21.70;99.90;;;;;;6243852;22;20018;-82
2023/09/03 09:58:59;;;;;;;919.72;767.60;;;21.70;99.90;;;;;;6243827;22;20012;-81
2023/09/03 10:01:27;;;;;;;1093.78;704.05;;;21.70;99.90;;;;;;6244320;22;20469;-82
2023/09/03 10:03:53;;;;;;;1262.80;802.92;;;21.70;99.90;;;;;;6242952;22;20537;-82
2023/09/03 10:06:21;;;;;;;1151.63;753.83;;;21.70;99.90;;;;;;6271985;22;20003;-83
2023/09/03 10:08:48;;;;;;;1514.45;933.47;;;21.80;99.90;;;;;;6246053;22;20019;-83
2023/09/03 10:11:14;;;;;;;1774.60;956.88;;;21.80;99.90;;;;;;6245835;22;20004;-83
2023/09/03 10:13:42;;;;;;;1285.68;825.58;;;21.70;99.90;;;;;;6273534;22;20077;-83
2023/09/03 10:16:09;;;;;;;700.85;543.05;;;21.70;99.90;;;;;;6245831;22;20016;-84
2023/09/03 10:18:57;;;;;;;1261.22;776.33;;;21.70;99.90;;;;;;6271335;22;20008;-83
2023/09/03 10:21:27;;;;;;;853.25;642.45;;;21.70;99.90;;;;;;6272035;22;20057;-83
2023/09/03 10:23:54;;;;;;;469.75;408.77;;;21.80;99.90;;;;;;6271088;22;20016;-83
2023/09/03 10:26:31;;;;;;;1956.07;999.90;;;21.80;99.90;;;;;;6245864;22;20015;-84
2023/09/03 10:29:01;;;;;;;1406.53;927.35;;;21.80;99.90;;;;;;6245454;22;20061;-83
2023/09/03 10:31:28;;;;;;;1999.90;999.90;;;21.90;99.90;;;;;;6245632;22;20012;-84
2023/09/03 10:33:54;;;;;;;1999.90;999.90;;;22.00;99.90;;;;;;6245215;22;20098;-83
2023/09/03 10:36:20;;;;;;;1999.90;999.90;;;21.70;99.90;;;;;;6246184;22;20039;-83
2023/09/03 10:38:47;;;;;;;1895.05;996.08;;;21.70;99.90;;;;;;6271344;22;20500;-83
2023/09/03 10:41:17;;;;;;;1394.82;983.92;;;21.80;99.90;;;;;;6273460;22;20476;-83
2023/09/03 10:43:43;;;;;;;1399.28;949.92;;;22.00;99.90;;;;;;6245655;22;20015;-84
2023/09/03 10:46:09;;;;;;;1999.90;999.90;;;22.10;99.90;;;;;;6245896;22;20397;-83
2023/09/03 10:48:35;;;;;;;1999.90;939.75;;;22.20;99.90;;;;;;6245180;22;20011;-84
2023/09/03 10:51:02;;;;;;;1999.90;999.90;;;22.20;99.90;;;;;;6246063;22;20012;-82
2023/09/03 10:53:42;;;;;;;1999.90;938.33;;;22.40;99.90;;;;;;6245675;22;20012;-82
2023/09/03 10:56:13;;;;;;;1999.90;999.90;;;22.40;99.90;;;;;;6271613;22;20012;-82
2023/09/03 10:58:59;;;;;;;1999.90;999.90;;;22.60;99.90;;;;;;6245598;22;20008;-83
2023/09/03 11:01:34;;;;;;;1999.90;479.13;;;22.70;99.90;;;;;;6270922;22;20015;-82
2023/09/03 11:04:03;;;;;;;1999.90;855.83;;;22.80;99.90;;;;;;6270834;22;20511;-82
2023/09/03 11:06:33;;;;;;;1750.22;309.95;;;22.70;99.90;;;;;;6271427;22;20065;-82
2023/09/03 11:08:59;;;;;;;1999.90;929.47;;;22.50;99.90;;;;;;6271460;22;20033;-82
2023/09/03 11:11:28;;;;;;;1999.90;952.92;;;22.60;99.90;;;;;;6245730;22;20016;-82
2023/09/03 11:13:55;;;;;;;1999.90;999.90;;;22.70;99.90;;;;;;6245143;22;20015;-82
2023/09/03 11:16:47;;;;;;;1999.90;999.90;;;22.60;99.90;;;;;;6270172;22;20022;-83
2023/09/03 11:19:12;;;;;;;1999.90;999.90;;;22.70;99.90;;;;;;6268355;22;20022;-83
2023/09/03 11:21:38;;;;;;;1999.90;999.90;;;22.40;99.90;;;;;;6245513;22;20011;-82
2023/09/03 11:24:06;;;;;;;1999.90;999.90;;;22.60;99.90;;;;;;6245413;22;20008;-83
2023/09/03 11:26:37;;;;;;;1999.90;999.90;;;22.70;99.90;;;;;;6245248;22;20095;-83
2023/09/03 11:29:03;;;;;;;1999.90;999.90;;;22.60;99.90;;;;;;6271326;22;20014;-82
2023/09/03 11:31:29;;;;;;;1999.90;999.90;;;22.70;99.90;;;;;;6270682;22;20013;-82
2023/09/03 11:33:58;;;;;;;1999.90;999.90;;;22.80;99.90;;;;;;6245242;22;20584;-82
2023/09/03 11:36:24;;;;;;;1999.90;999.90;;;22.90;99.90;;;;;;6245297;22;20047;-82
2023/09/03 11:38:55;;;;;;;1999.90;999.90;;;22.80;99.90;;;;;;6270253;22;20346;-83
2023/09/03 11:41:21;;;;;;;1999.90;999.90;;;22.70;99.90;;;;;;6245017;22;20034;-83
2023/09/03 11:43:47;;;;;;;1999.90;999.90;;;22.60;99.90;;;;;;6244595;22;20008;-83
2023/09/03 11:46:16;;;;;;;1999.90;999.90;;;22.40;99.90;;;;;;6244371;22;20038;-83
2023/09/03 11:48:48;;;;;;;1999.90;999.90;;;22.30;99.90;;;;;;6244738;22;20012;-83
2023/09/03 11:51:28;;;;;;;1999.90;999.90;;;22.30;99.90;;;;;;6270385;22;20042;-83
2023/09/03 11:53:54;;;;;;;1999.90;999.90;;;22.30;99.90;;;;;;6272289;22;20074;-82
2023/09/03 11:56:21;;;;;;;1999.90;999.90;;;22.30;99.90;;;;;;6270687;22;20016;-82
2023/09/03 11:58:51;;;;;;;1999.90;999.90;;;22.30;99.90;;;;;;6244555;22;20440;-82
2023/09/03 12:01:18;;;;;;;1999.90;999.90;;;22.30;99.90;;;;;;6244916;22;20008;-82
2023/09/03 12:03:44;;;;;;;1999.90;999.90;;;22.40;99.90;;;;;;6270003;22;20342;-81
2023/09/03 12:06:10;;;;;;;1999.90;999.90;;;22.30;99.90;;;;;;6272081;22;20004;-82
2023/09/03 12:08:35;;;;;;;1999.90;999.90;;;22.40;99.90;;;;;;6244686;22;20038;-82
2023/09/03 12:11:01;;;;;;;1999.90;999.90;;;22.50;99.90;;;;;;6269974;22;20433;-82
2023/09/03 12:13:39;;;;;;;1999.90;999.90;;;22.50;99.90;;;;;;6269470;22;20013;-82
2023/09/03 12:16:15;;;;;;;1999.90;999.90;;;22.60;99.90;;;;;;6269105;22;20016;-83
2023/09/03 12:18:55;;;;;;;1999.90;999.90;;;22.60;99.90;;;;;;6241054;22;20094;-82
2023/09/03 12:21:36;;;;;;;1999.90;999.90;;;22.70;99.90;;;;;;6267126;22;20015;-83
2023/09/03 12:24:06;;;;;;;1999.90;999.90;;;23.00;99.90;;;;;;6243243;22;20019;-82
2023/09/03 12:26:35;;;;;;;1999.90;999.90;;;23.10;99.90;;;;;;6270203;22;20099;-82
2023/09/03 12:29:03;;;;;;;1999.90;999.90;;;23.10;99.90;;;;;;6243478;22;20466;-82
2023/09/03 12:31:44;;;;;;;1999.90;999.90;;;23.00;99.90;;;;;;6270203;22;20496;-82
2023/09/03 12:34:10;;;;;;;1999.90;999.90;;;23.10;99.90;;;;;;6269980;22;20069;-82
2023/09/03 12:36:56;;;;;;;1999.90;999.90;;;23.30;99.90;;;;;;6244434;22;20508;-83
2023/09/03 12:39:32;;;;;;;1999.90;999.90;;;23.40;99.90;;;;;;6270120;22;20015;-81
2023/09/03 12:41:59;;;;;;;1999.90;999.90;;;23.30;99.90;;;;;;6244446;22;20042;-81
2023/09/03 12:44:28;;;;;;;1999.90;999.90;;;23.50;99.90;;;;;;6269492;22;20008;-81
2023/09/03 12:46:55;;;;;;;1999.90;999.90;;;23.50;99.90;;;;;;6244585;22;20012;-81
2023/09/03 12:49:21;;;;;;;1999.90;999.90;;;23.40;99.90;;;;;;6269731;22;20004;-81
2023/09/03 12:51:47;;;;;;;1999.90;999.90;;;23.50;99.90;;;;;;6244567;22;20149;-81
2023/09/03 12:54:14;;;;;;;1999.90;999.90;;;23.60;99.90;;;;;;6269814;22;20039;-81
2023/09/03 12:56:42;;;;;;;1999.90;999.90;;;23.80;99.90;;;;;;6271718;22;20011;-81
2023/09/03 12:59:08;;;;;;;1999.90;999.90;;;24.10;99.90;;;;;;6243806;22;20034;-82
2023/09/03 13:01:35;;;;;;;1999.90;999.90;;;24.20;99.90;;;;;;6244307;22;20619;-83
2023/09/03 13:04:02;;;;;;;1999.90;999.90;;;24.40;99.90;;;;;;6243969;22;20378;-82
2023/09/03 13:06:28;;;;;;;1999.90;999.90;;;24.30;99.90;;;;;;6270283;22;20014;-83
2023/09/03 13:08:54;;;;;;;1999.90;999.90;;;24.30;99.90;;;;;;6269833;22;20091;-82
2023/09/03 13:11:20;;;;;;;1999.90;999.90;;;24.30;99.90;;;;;;6244262;22;20014;-82
2023/09/03 13:13:49;;;;;;;1999.90;999.90;;;24.20;99.90;;;;;;6269754;22;20042;-81
2023/09/03 13:16:30;;;;;;;1999.90;999.90;;;24.10;99.90;;;;;;6271241;22;20018;-82
2023/09/03 13:18:56;;;;;;;1999.90;999.90;;;24.00;99.90;;;;;;6244162;22;20374;-81
2023/09/03 13:21:22;;;;;;;1999.90;999.90;;;24.00;99.90;;;;;;6244112;22;20431;-82
2023/09/03 13:23:49;;;;;;;1999.90;999.90;;;24.20;99.90;;;;;;6244394;22;20008;-82
2023/09/03 13:26:16;;;;;;;1999.90;999.90;;;24.40;99.90;;;;;;6269083;22;20022;-82
2023/09/03 13:28:41;;;;;;;1999.90;999.90;;;24.40;99.90;;;;;;6269447;22;20544;-82
2023/09/03 13:31:07;;;;;;;1999.90;999.90;;;24.60;99.90;;;;;;6244045;22;20039;-82
2023/09/03 13:33:34;;;;;;;1999.90;999.90;;;24.70;99.90;;;;;;6269518;22;20458;-82
2023/09/03 13:36:03;;;;;;;1999.90;999.90;;;24.50;99.90;;;;;;6269543;22;20026;-82
2023/09/03 13:38:29;;;;;;;1999.90;999.90;;;24.40;99.90;;;;;;6244191;22;20008;-82
2023/09/03 13:40:56;;;;;;;1999.90;999.90;;;24.50;99.90;;;;;;6269185;22;20330;-82
2023/09/03 13:43:22;;;;;;;1999.90;999.90;;;24.60;99.90;;;;;;6243810;22;20338;-82
2023/09/03 13:45:55;;;;;;;1999.90;999.90;;;24.60;99.90;;;;;;6243569;22;20011;-82
2023/09/03 13:48:21;;;;;;;1999.90;999.90;;;24.40;99.90;;;;;;6269363;22;20457;-82
2023/09/03 13:50:47;;;;;;;1999.90;999.90;;;24.40;99.90;;;;;;6269669;22;20012;-82
2023/09/03 13:53:13;;;;;;;1999.90;999.90;;;24.20;99.90;;;;;;6269700;22;20466;-82
2023/09/03 13:55:39;;;;;;;1999.90;999.90;;;23.80;99.90;;;;;;6268797;22;20012;-82
2023/09/03 13:58:05;;;;;;;1999.90;999.90;;;23.70;99.90;;;;;;6271270;22;20015;-81
2023/09/03 14:00:31;;;;;;;1999.90;999.90;;;23.50;99.90;;;;;;6269449;22;20094;-81
2023/09/03 14:02:57;;;;;;;1999.90;999.90;;;23.50;99.90;;;;;;6243979;22;20039;-82
2023/09/03 14:05:22;;;;;;;1999.90;999.90;;;23.50;99.90;;;;;;6270826;22;20016;-81
2023/09/03 14:07:48;;;;;;;1999.90;999.90;;;23.30;99.90;;;;;;6269457;22;20439;-82
2023/09/03 14:10:14;;;;;;;1999.90;999.90;;;23.30;99.90;;;;;;6268793;22;20015;-82
2023/09/03 14:12:40;;;;;;;1999.90;999.90;;;23.30;99.90;;;;;;6243618;22;20019;-82
2023/09/03 14:15:06;;;;;;;1999.90;999.90;;;23.20;99.90;;;;;;6244055;22;20004;-82
2023/09/03 14:17:33;;;;;;;1999.90;999.90;;;23.20;99.90;;;;;;6269673;22;20008;-81
2023/09/03 14:19:59;;;;;;;1999.90;999.90;;;23.20;99.90;;;;;;6243782;22;20066;-82
2023/09/03 14:22:24;;;;;;;1999.90;999.90;;;23.20;99.90;;;;;;6271382;22;20007;-82
2023/09/03 14:24:50;;;;;;;1999.90;999.90;;;23.30;99.90;;;;;;6268874;22;20015;-81
2023/09/03 14:27:16;;;;;;;1999.90;999.90;;;23.40;99.90;;;;;;6269204;22;20053;-82
2023/09/03 14:29:41;;;;;;;1999.90;999.90;;;23.30;99.90;;;;;;6269193;22;20004;-81
2023/09/03 14:32:07;;;;;;;1999.90;999.90;;;23.30;99.90;;;;;;6271084;22;20051;-82
2023/09/03 14:34:33;;;;;;;1999.90;999.90;;;23.40;99.90;;;;;;6267534;22;20019;-82
2023/09/03 14:36:59;;;;;;;1999.90;999.90;;;23.30;99.90;;;;;;6243488;22;20022;-82
2023/09/03 14:39:25;;;;;;;1999.90;999.90;;;23.30;99.90;;;;;;6242913;22;20015;-82
2023/09/03 14:41:51;;;;;;;1999.90;999.90;;;23.30;99.90;;;;;;6243680;22;20011;-82
2023/09/03 14:44:16;;;;;;;1999.90;999.90;;;23.20;99.90;;;;;;6243326;22;20526;-81
2023/09/03 14:46:43;;;;;;;1999.90;999.90;;;23.10;99.90;;;;;;6269117;22;20007;-80
2023/09/03 14:49:09;;;;;;;1999.90;999.90;;;23.20;99.90;;;;;;6243687;22;20450;-81
2023/09/03 14:51:36;;;;;;;1999.90;999.90;;;23.20;99.90;;;;;;6244888;22;20311;-81
2023/09/03 14:54:01;;;;;;;1999.90;999.90;;;23.40;99.90;;;;;;6244977;22;20018;-81
2023/09/03 14:56:27;;;;;;;1999.90;999.90;;;23.40;99.90;;;;;;6271263;22;20422;-81
2023/09/03 14:58:52;;;;;;;1999.90;999.90;;;23.50;99.90;;;;;;6271185;22;20019;-81
2023/09/03 15:01:25;;;;;;;1999.90;999.90;;;23.40;99.90;;;;;;6271485;22;20007;-82
2023/09/03 15:03:51;;;;;;;1999.90;999.90;;;23.30;99.90;;;;;;6273549;22;20049;-82
2023/09/03 15:06:19;;;;;;;1999.90;999.90;;;23.20;99.90;;;;;;6271500;22;20008;-81
2023/09/03 15:08:45;;;;;;;1999.90;999.90;;;23.10;99.90;;;;;;6270616;22;20474;-82
2023/09/03 15:11:21;;;;;;;1999.90;999.90;;;23.10;99.90;;;;;;6244978;22;20008;-82
2023/09/03 15:13:55;;;;;;;1999.90;999.90;;;23.00;99.90;;;;;;6244985;22;20018;-82
2023/09/03 15:16:22;;;;;;;1999.90;999.90;;;23.00;99.90;;;;;;6270857;22;20011;-80
2023/09/03 15:18:48;;;;;;;1999.90;999.90;;;23.10;99.90;;;;;;6270862;22;20004;-81
2023/09/03 15:21:14;;;;;;;1999.90;999.90;;;23.10;99.90;;;;;;6270573;22;20524;-82
2023/09/03 15:23:40;;;;;;;1999.90;999.90;;;23.10;99.90;;;;;;6270833;22;20019;-81
2023/09/03 15:26:06;;;;;;;1999.90;999.90;;;23.20;99.90;;;;;;6271779;22;20023;-81
2023/09/03 15:28:32;;;;;;;1999.90;999.90;;;23.30;99.90;;;;;;6272794;22;20096;-82
2023/09/03 15:30:57;;;;;;;1999.90;999.90;;;23.30;99.90;;;;;;6272460;22;20039;-81
2023/09/03 15:33:23;;;;;;;1999.90;999.90;;;23.40;99.90;;;;;;6240224;22;20024;-81
2023/09/03 15:35:49;;;;;;;1999.90;999.90;;;23.40;99.90;;;;;;6242339;22;20015;-80
2023/09/03 15:38:15;;;;;;;1999.90;999.90;;;23.40;99.90;;;;;;6267386;22;20035;-82
2023/09/03 15:40:41;;;;;;;1999.90;999.90;;;23.40;99.90;;;;;;6269411;22;20451;-81
2023/09/03 15:43:10;;;;;;;1999.90;999.90;;;23.40;99.90;;;;;;6268878;22;20052;-81
2023/09/03 15:45:37;;;;;;;1999.90;999.90;;;23.50;99.90;;;;;;6270035;22;20429;-81
2023/09/03 15:48:03;;;;;;;1999.90;999.90;;;23.60;99.90;;;;;;6269223;22;20011;-81
2023/09/03 15:50:30;;;;;;;1999.90;999.90;;;23.60;99.90;;;;;;6242668;22;20346;-82
2023/09/03 15:52:56;;;;;;;1999.90;999.90;;;23.50;99.90;;;;;;6267274;22;20012;-82
2023/09/03 15:55:22;;;;;;;1999.90;999.90;;;23.50;99.90;;;;;;6242956;22;20012;-82
2023/09/03 15:57:47;;;;;;;1999.90;999.90;;;23.40;99.90;;;;;;6270195;22;20069;-82
2023/09/03 16:00:17;;;;;;;1999.90;999.90;;;23.50;99.90;;;;;;6243106;22;20496;-82
2023/09/03 16:02:43;;;;;;;1999.90;999.90;;;23.40;99.90;;;;;;6242133;22;20039;-83
2023/09/03 16:05:12;;;;;;;1999.90;999.90;;;23.30;99.90;;;;;;6269942;22;20016;-82
2023/09/03 16:07:38;;;;;;;1999.90;999.90;;;23.20;99.90;;;;;;6241526;22;20027;-82
2023/09/03 16:10:04;;;;;;;1999.90;999.90;;;23.10;99.90;;;;;;6268494;22;20011;-83
2023/09/03 16:12:30;;;;;;;1999.90;999.90;;;23.10;99.90;;;;;;6242035;22;20007;-82
2023/09/03 16:14:57;;;;;;;1999.90;999.90;;;23.10;99.90;;;;;;6242734;22;20012;-82
2023/09/03 16:17:23;;;;;;;1999.90;999.90;;;23.00;99.90;;;;;;6242759;22;20095;-83
2023/09/03 16:19:48;;;;;;;1999.90;999.90;;;23.00;99.90;;;;;;6242480;22;20257;-82
2023/09/03 16:22:14;;;;;;;1999.90;999.90;;;23.00;99.90;;;;;;6267761;22;20050;-81
2023/09/03 16:24:41;;;;;;;1999.90;999.90;;;23.10;99.90;;;;;;6268348;22;20019;-80
2023/09/03 16:27:07;;;;;;;1999.90;999.90;;;23.10;99.90;;;;;;6242731;22;20042;-80
2023/09/03 16:29:36;;;;;;;1999.90;999.90;;;23.10;99.90;;;;;;6268466;22;20043;-83
2023/09/03 16:32:02;;;;;;;1999.90;999.90;;;23.10;99.90;;;;;;6240887;22;20487;-82
2023/09/03 16:34:28;;;;;;;1999.90;999.90;;;23.10;99.90;;;;;;6262599;22;20442;-82